Time;durP1;ratioP1;P1;durP2;ratioP2;P2;SDS_P1;SDS_P2;PMS_P1;PMS_P2;Temp;Humidity;BMP_temperature;BMP_pressure;BME280_temperature;BME280_humidity;BME280_pressure;Samples;Min_cycle;Max_cycle;Signal;HPM_P1;HPM_P2
2023/09/08 00:02:24;;;;;;;;;20.25;19.50;;;;;28.97;34.36;101056.59;5057127;28;45415;-63
2023/09/08 00:04:49;;;;;;;;;23.25;20.00;;;;;28.95;34.62;101063.97;5041154;28;45364;-63
2023/09/08 00:07:15;;;;;;;;;20.25;20.25;;;;;28.90;34.42;101058.13;5107965;22;46233;-63
2023/09/08 00:09:40;;;;;;;;;19.50;18.00;;;;;28.79;34.56;101057.22;5045164;28;45486;-62
2023/09/08 00:12:09;;;;;;;;;19.50;19.25;;;;;28.82;35.00;101065.03;5041152;28;45308;-63
2023/09/08 00:14:34;;;;;;;;;27.50;21.25;;;;;28.80;34.75;101071.56;5041379;28;45270;-63
2023/09/08 00:17:00;;;;;;;;;20.25;19.25;;;;;28.77;34.41;101066.44;5040863;28;45329;-62
2023/09/08 00:19:25;;;;;;;;;21.25;19.00;;;;;28.73;35.01;101071.25;5040378;28;45342;-62
2023/09/08 00:21:50;;;;;;;;;22.75;21.75;;;;;28.69;35.13;101076.06;5041351;28;45332;-62
2023/09/08 00:24:17;;;;;;;;;38.75;33.75;;;;;28.66;35.03;101067.31;5040864;28;45236;-63
2023/09/08 00:26:43;;;;;;;;;40.50;32.75;;;;;28.64;34.93;101072.88;5066845;28;45257;-62
2023/09/08 00:29:08;;;;;;;;;34.25;30.75;;;;;28.63;35.05;101068.44;5060996;28;45699;-63
2023/09/08 00:31:33;;;;;;;;;33.50;30.00;;;;;28.61;35.20;101070.41;5061226;28;45569;-63
2023/09/08 00:33:58;;;;;;;;;20.75;20.00;;;;;28.56;35.35;101064.53;5060913;28;45585;-63
2023/09/08 00:36:24;;;;;;;;;23.00;20.25;;;;;28.56;35.26;101063.69;5060813;28;45368;-63
2023/09/08 00:38:49;;;;;;;;;20.75;20.75;;;;;28.51;35.32;101064.09;5061007;28;45300;-62
2023/09/08 00:41:14;;;;;;;;;27.25;25.75;;;;;28.50;35.74;101065.06;5061031;28;45296;-62
2023/09/08 00:43:40;;;;;;;;;24.50;22.25;;;;;28.47;35.49;101063.50;5060853;28;45304;-63
2023/09/08 00:46:06;;;;;;;;;22.75;21.75;;;;;28.44;35.77;101063.75;5060686;28;46022;-62
2023/09/08 00:48:32;;;;;;;;;19.50;18.75;;;;;28.42;35.36;101065.72;5060874;28;45311;-63
2023/09/08 00:50:58;;;;;;;;;23.00;22.00;;;;;28.38;35.50;101073.22;5060646;28;45319;-63
2023/09/08 00:53:23;;;;;;;;;19.25;19.25;;;;;28.36;35.47;101074.34;5060711;28;45425;-62
2023/09/08 00:55:50;;;;;;;;;20.25;19.25;;;;;28.32;35.63;101070.22;5059034;28;47517;-62
2023/09/08 00:58:15;;;;;;;;;25.00;21.75;;;;;28.29;35.59;101068.63;5058942;28;45217;-63
2023/09/08 01:00:40;;;;;;;;;23.25;21.75;;;;;28.29;35.68;101074.03;5060802;28;45348;-62
2023/09/08 01:03:06;;;;;;;;;23.50;21.00;;;;;28.26;36.07;101066.16;5060500;28;48368;-62
2023/09/08 01:05:32;;;;;;;;;23.75;19.50;;;;;28.22;35.87;101067.41;5060226;28;45501;-62
2023/09/08 01:08:00;;;;;;;;;22.75;19.75;;;;;28.22;35.99;101068.25;5060621;28;45206;-63
2023/09/08 01:10:25;;;;;;;;;22.00;19.75;;;;;28.21;35.66;101076.50;5055794;28;45326;-63
2023/09/08 01:12:50;;;;;;;;;20.50;18.25;;;;;28.19;36.07;101071.22;5060307;28;45273;-63
2023/09/08 01:15:16;;;;;;;;;16.25;16.25;;;;;28.16;35.88;101070.63;5060309;28;45316;-63
2023/09/08 01:17:41;;;;;;;;;19.50;18.50;;;;;28.11;35.98;101064.75;5059604;28;45435;-63
2023/09/08 01:20:17;;;;;;;;;18.00;17.75;;;;;28.11;36.14;101065.59;5060138;28;45299;-62
2023/09/08 01:22:59;;;;;;;;;16.25;15.25;;;;;28.09;35.89;101061.31;5060405;28;45375;-64
2023/09/08 01:25:26;;;;;;;;;16.50;15.00;;;;;28.06;35.95;101062.44;5063503;28;46363;-62
2023/09/08 01:27:57;;;;;;;;;18.25;17.50;;;;;28.02;35.91;101060.94;5067615;27;45339;-63
2023/09/08 01:30:24;;;;;;;;;16.00;15.75;;;;;27.99;35.83;101059.38;5060304;28;45299;-63
2023/09/08 01:32:51;;;;;;;;;18.75;18.25;;;;;27.97;36.63;101058.63;5060054;28;45415;-62
2023/09/08 01:35:16;;;;;;;;;17.50;16.50;;;;;27.95;35.84;101063.31;5059926;28;46381;-62
2023/09/08 01:37:44;;;;;;;;;20.00;19.00;;;;;27.93;36.57;101061.72;5060042;28;45346;-62
2023/09/08 01:40:10;;;;;;;;;17.25;17.25;;;;;27.89;36.69;101059.25;5059975;28;45383;-63
2023/09/08 01:42:36;;;;;;;;;18.00;17.25;;;;;27.87;36.86;101065.78;5059881;28;45612;-63
2023/09/08 01:45:02;;;;;;;;;15.75;15.75;;;;;27.84;36.71;101064.19;5059760;28;46326;-63
2023/09/08 01:47:29;;;;;;;;;12.75;11.75;;;;;27.82;36.57;101063.44;5060123;28;45264;-63
2023/09/08 01:49:54;;;;;;;;;11.75;10.75;;;;;27.79;36.30;101066.41;5060048;28;45300;-62
2023/09/08 01:52:20;;;;;;;;;14.25;13.25;;;;;27.74;36.30;101061.38;5059908;28;45306;-62
2023/09/08 01:54:45;;;;;;;;;16.75;16.50;;;;;27.75;36.38;101067.66;5059384;28;45374;-62
2023/09/08 01:57:10;;;;;;;;;21.75;17.50;;;;;27.73;36.57;101061.53;5059523;28;45331;-62
2023/09/08 01:59:36;;;;;;;;;20.00;19.25;;;;;27.70;36.52;101070.72;5060010;28;45264;-62
2023/09/08 02:02:02;;;;;;;;;18.00;18.00;;;;;27.66;37.00;101060.28;5059975;28;45292;-62
2023/09/08 02:04:28;;;;;;;;;20.50;17.75;;;;;27.64;37.05;101068.53;5059714;28;46053;-62
2023/09/08 02:06:53;;;;;;;;;16.00;15.75;;;;;27.59;37.31;101059.09;5059605;28;45321;-62
2023/09/08 02:09:18;;;;;;;;;22.00;19.00;;;;;27.55;36.85;101051.25;5057585;28;45269;-62
2023/09/08 02:11:44;;;;;;;;;17.25;17.25;;;;;27.54;37.24;101064.88;5059813;28;45345;-62
2023/09/08 02:14:09;;;;;;;;;19.00;18.00;;;;;27.52;36.97;101061.44;5059608;28;46456;-62
2023/09/08 02:16:34;;;;;;;;;15.50;14.50;;;;;27.49;36.99;101056.28;5059706;28;45441;-62
2023/09/08 02:19:00;;;;;;;;;18.50;17.00;;;;;27.49;36.62;101065.22;5059898;28;45421;-62
2023/09/08 02:21:25;;;;;;;;;17.75;16.50;;;;;27.43;37.06;101060.31;5059606;28;45879;-63
2023/09/08 02:23:50;;;;;;;;;20.25;18.75;;;;;27.43;36.95;101064.88;5059338;28;45169;-62
2023/09/08 02:26:16;;;;;;;;;21.50;18.75;;;;;27.41;36.79;101067.72;5069748;28;45410;-62
2023/09/08 02:28:41;;;;;;;;;19.00;17.25;;;;;27.37;37.46;101077.84;5060014;27;45219;-62
2023/09/08 02:31:06;;;;;;;;;18.75;15.75;;;;;27.36;37.37;101077.97;5062786;28;45255;-63
2023/09/08 02:33:32;;;;;;;;;19.50;19.00;;;;;27.33;36.85;101081.78;5062659;28;46146;-62
2023/09/08 02:36:05;;;;;;;;;19.25;19.25;;;;;27.31;37.09;101088.25;5063197;28;45281;-62
2023/09/08 02:38:31;;;;;;;;;18.25;16.75;;;;;27.27;37.00;101084.97;5061618;28;45189;-62
2023/09/08 02:40:57;;;;;;;;;21.00;17.00;;;;;27.23;37.59;101080.78;5062506;28;45182;-63
2023/09/08 02:43:22;;;;;;;;;16.25;15.75;;;;;27.19;37.49;101077.47;5062726;28;46054;-63
2023/09/08 02:45:47;;;;;;;;;16.50;16.50;;;;;27.16;37.26;101080.41;5062776;28;45224;-62
2023/09/08 02:48:13;;;;;;;;;10.25;9.75;;;;;27.17;37.12;101089.34;5061583;28;45313;-62
2023/09/08 02:50:38;;;;;;;;;19.25;16.00;;;;;27.14;37.77;101085.06;5062645;28;46036;-62
2023/09/08 02:53:03;;;;;;;;;16.75;16.75;;;;;27.12;37.03;101087.03;5062479;28;45390;-63
2023/09/08 02:55:29;;;;;;;;;17.00;15.50;;;;;27.11;37.50;101088.03;5062275;28;45430;-62
2023/09/08 02:57:56;;;;;;;;;15.25;13.25;;;;;27.07;37.31;101083.84;5062684;28;45332;-62
2023/09/08 03:00:21;;;;;;;;;17.50;16.75;;;;;27.06;37.99;101085.69;5062462;28;45482;-63
2023/09/08 03:02:46;;;;;;;;;16.25;16.25;;;;;27.04;37.90;101087.66;5062269;28;45399;-62
2023/09/08 03:05:12;;;;;;;;;15.25;14.50;;;;;27.00;37.73;101085.31;5062264;28;45355;-63
2023/09/08 03:07:38;;;;;;;;;20.75;16.00;;;;;26.99;37.62;101088.97;5062458;28;45322;-63
2023/09/08 03:10:05;;;;;;;;;16.50;16.50;;;;;26.98;37.75;101085.44;5062001;28;45355;-62
2023/09/08 03:12:30;;;;;;;;;19.00;17.50;;;;;26.97;37.92;101085.53;5062123;28;45240;-63
2023/09/08 03:14:55;;;;;;;;;16.50;16.00;;;;;26.96;37.71;101094.63;5062284;28;45352;-63
2023/09/08 03:17:21;;;;;;;;;18.00;15.75;;;;;26.89;38.15;101080.75;5062390;28;45307;-63
2023/09/08 03:19:46;;;;;;;;;15.25;13.25;;;;;26.91;37.41;101078.81;5062363;28;45236;-62
2023/09/08 03:22:11;;;;;;;;;56.50;45.00;;;;;26.89;38.06;101083.44;5061941;28;45228;-62
2023/09/08 03:24:37;;;;;;;;;18.75;17.25;;;;;26.87;37.93;101078.19;5062004;28;45248;-63
2023/09/08 03:27:02;;;;;;;;;17.25;16.75;;;;;26.86;38.21;101078.31;5073466;28;45238;-62
2023/09/08 03:29:28;;;;;;;;;20.50;17.25;;;;;26.84;38.16;101081.13;5062012;28;45287;-63
2023/09/08 03:31:53;;;;;;;;;15.75;14.50;;;;;26.83;38.25;101078.53;5061933;28;46161;-63
2023/09/08 03:34:20;;;;;;;;;17.00;17.00;;;;;26.80;38.23;101082.31;5062231;28;45702;-63
2023/09/08 03:36:46;;;;;;;;;16.00;15.00;;;;;26.80;38.08;101086.88;5062007;28;45346;-62
2023/09/08 03:39:11;;;;;;;;;15.00;12.00;;;;;26.78;37.61;101081.59;5061648;28;45450;-63
2023/09/08 03:41:36;;;;;;;;;16.00;13.75;;;;;26.77;37.66;101085.28;5060676;28;46462;-63
2023/09/08 03:44:02;;;;;;;;;17.50;16.00;;;;;26.75;38.46;101082.69;5062068;28;45383;-63
2023/09/08 03:46:27;;;;;;;;;16.00;15.50;;;;;26.73;37.75;101084.66;5061816;28;45811;-63
2023/09/08 03:48:58;;;;;;;;;15.75;15.50;;;;;26.70;38.48;101073.22;5061253;28;45580;-63
2023/09/08 03:51:23;;;;;;;;;18.75;16.00;;;;;26.70;37.94;101084.84;5061548;28;46261;-62
2023/09/08 03:53:49;;;;;;;;;17.25;16.00;;;;;26.67;38.17;101077.00;5061572;28;45416;-63
2023/09/08 03:56:14;;;;;;;;;16.75;16.00;;;;;26.66;38.60;101077.97;5061581;28;45345;-63
2023/09/08 03:58:39;;;;;;;;;16.50;16.50;;;;;26.64;38.08;101070.97;5061913;28;45315;-63
2023/09/08 04:01:05;;;;;;;;;18.50;16.50;;;;;26.62;38.58;101076.50;5061476;28;46115;-63
2023/09/08 04:03:30;;;;;;;;;15.75;14.25;;;;;26.61;38.07;101077.47;5061661;28;45457;-62
2023/09/08 04:05:55;;;;;;;;;13.00;12.25;;;;;26.58;38.54;101075.03;5061280;28;45421;-63
2023/09/08 04:08:20;;;;;;;;;14.75;14.00;;;;;26.58;37.98;101070.47;5061235;28;45581;-63
2023/09/08 04:10:46;;;;;;;;;29.00;27.50;;;;;26.57;38.55;101071.44;5061034;28;46056;-63
2023/09/08 04:13:11;;;;;;;;;14.50;14.50;;;;;26.56;38.45;101072.44;5061515;28;46507;-63
2023/09/08 04:15:36;;;;;;;;;15.50;14.00;;;;;26.55;38.16;101078.81;5061147;28;45378;-63
2023/09/08 04:18:02;;;;;;;;;14.00;14.00;;;;;26.53;38.01;101078.06;5061425;28;45352;-63
2023/09/08 04:20:28;;;;;;;;;16.75;16.50;;;;;26.51;38.30;101073.78;5059929;28;47041;-62
2023/09/08 04:22:53;;;;;;;;;17.00;17.00;;;;;26.51;38.20;101084.53;5060010;28;45321;-63
2023/09/08 04:25:18;;;;;;;;;19.00;17.00;;;;;26.49;38.30;101087.38;5063775;28;45257;-62
2023/09/08 04:27:44;;;;;;;;;23.00;19.00;;;;;26.48;38.23;101085.66;5069582;27;45576;-63
2023/09/08 04:30:10;;;;;;;;;16.25;16.25;;;;;26.46;38.81;101079.50;5060818;28;45311;-63
2023/09/08 04:32:37;;;;;;;;;16.75;15.00;;;;;26.44;38.92;101085.00;5061089;28;45220;-63
2023/09/08 04:35:03;;;;;;;;;16.25;16.25;;;;;26.42;38.36;101084.25;5061005;28;45232;-63
2023/09/08 04:37:30;;;;;;;;;15.75;14.50;;;;;26.40;38.83;101082.66;5061094;28;45579;-63
2023/09/08 04:39:55;;;;;;;;;16.25;14.25;;;;;26.38;38.79;101084.63;5060696;28;45331;-63
2023/09/08 04:42:21;;;;;;;;;19.75;17.75;;;;;26.37;38.60;101081.06;5060987;28;45303;-62
2023/09/08 04:44:46;;;;;;;;;15.25;14.75;;;;;26.34;38.46;101084.00;5060973;28;45743;-63
2023/09/08 04:47:11;;;;;;;;;17.00;15.50;;;;;26.32;39.12;101080.56;5060813;28;45304;-63
2023/09/08 04:49:37;;;;;;;;;16.50;16.00;;;;;26.32;38.97;101090.47;5060544;28;45214;-63
2023/09/08 04:52:03;;;;;;;;;14.75;14.75;;;;;26.31;39.04;101091.44;5060701;28;45296;-63
2023/09/08 04:54:28;;;;;;;;;16.00;15.75;;;;;26.30;39.13;101087.03;5060132;28;45248;-63
2023/09/08 04:56:54;;;;;;;;;17.50;14.75;;;;;26.29;39.00;101080.78;5060772;28;45457;-62
2023/09/08 04:59:20;;;;;;;;;19.00;15.00;;;;;26.29;38.98;101083.50;5059086;28;46958;-62
2023/09/08 05:01:46;;;;;;;;;15.25;12.50;;;;;26.25;39.15;101074.78;5059322;28;45280;-62
2023/09/08 05:04:11;;;;;;;;;14.50;14.25;;;;;26.24;39.15;101083.81;5060791;28;45235;-63
2023/09/08 05:06:37;;;;;;;;;18.25;17.00;;;;;26.24;39.03;101080.28;5059745;28;45612;-62
2023/09/08 05:09:02;;;;;;;;;18.25;17.25;;;;;26.21;38.56;101083.19;5059929;28;46282;-62
2023/09/08 05:11:28;;;;;;;;;20.25;19.75;;;;;26.20;39.33;101082.34;5076022;28;45348;-62
2023/09/08 05:13:53;;;;;;;;;16.25;16.25;;;;;26.19;39.19;101083.31;5060170;28;45283;-60
2023/09/08 05:16:25;;;;;;;;;18.00;16.75;;;;;26.18;38.76;101086.13;5060384;28;45512;-60
2023/09/08 05:18:51;;;;;;;;;18.25;17.75;;;;;26.17;38.77;101085.25;5060131;28;45433;-60
2023/09/08 05:21:16;;;;;;;;;21.75;19.25;;;;;26.15;39.27;101089.03;5060263;28;45238;-62
2023/09/08 05:23:42;;;;;;;;;16.00;15.00;;;;;26.13;39.23;101077.53;5060296;28;45207;-62
2023/09/08 05:26:07;;;;;;;;;16.50;14.50;;;;;26.13;39.22;101086.47;5070031;28;45288;-62
2023/09/08 05:28:32;;;;;;;;;14.00;14.00;;;;;26.09;39.44;101087.69;5061860;27;46095;-62
2023/09/08 05:30:57;;;;;;;;;24.00;24.00;;;;;26.09;38.92;101093.06;5058288;28;45186;-63
2023/09/08 05:33:23;;;;;;;;;30.25;27.00;;;;;26.10;38.81;101092.06;5058849;28;45256;-62
2023/09/08 05:35:48;;;;;;;;;21.25;19.50;;;;;26.09;39.50;101093.91;5060213;28;45283;-66
2023/09/08 05:38:14;;;;;;;;;17.75;16.50;;;;;26.09;39.46;101095.75;5058288;28;47846;-66
2023/09/08 05:40:39;;;;;;;;;20.75;18.25;;;;;26.09;38.76;101099.28;5058328;28;45425;-66
2023/09/08 05:43:05;;;;;;;;;15.00;10.75;;;;;26.08;39.11;101092.19;5057703;28;45604;-71
2023/09/08 05:45:34;;;;;;;;;16.25;16.00;;;;;26.08;39.42;101091.34;5060002;28;45616;-66
2023/09/08 05:47:59;;;;;;;;;17.00;16.75;;;;;26.10;39.48;101097.44;5058596;28;47354;-62
2023/09/08 05:50:25;;;;;;;;;18.50;15.00;;;;;26.08;39.67;101092.19;5059797;28;45161;-61
2023/09/08 05:52:51;;;;;;;;;22.00;17.25;;;;;26.05;39.49;101095.13;5059891;28;45409;-62
2023/09/08 05:55:17;;;;;;;;;18.25;17.00;;;;;26.06;39.82;101099.53;5059391;28;45505;-64
2023/09/08 05:57:42;;;;;;;;;22.75;15.75;;;;;26.07;39.53;101106.63;5059228;28;45372;-61
2023/09/08 06:00:08;;;;;;;;;19.50;18.25;;;;;26.06;39.33;101095.97;5059841;28;45215;-63
2023/09/08 06:02:34;;;;;;;;;22.75;19.25;;;;;26.04;39.63;101097.91;5059779;28;45320;-67
2023/09/08 06:04:59;;;;;;;;;25.50;19.25;;;;;26.03;39.13;101102.41;5059913;28;45747;-69
2023/09/08 06:07:24;;;;;;;;;24.25;22.00;;;;;26.05;39.26;101099.59;5063026;28;45454;-67
2023/09/08 06:09:50;;;;;;;;;26.25;22.75;;;;;26.05;39.28;101100.50;5062980;28;45398;-69
2023/09/08 06:12:15;;;;;;;;;24.50;20.25;;;;;26.07;39.71;101100.38;5063287;28;45331;-68
2023/09/08 06:14:40;;;;;;;;;25.75;22.50;;;;;26.07;39.55;101100.38;5063377;28;45291;-67
2023/09/08 06:17:06;;;;;;;;;20.75;20.00;;;;;26.06;39.20;101102.22;5062858;28;46127;-68
2023/09/08 06:19:31;;;;;;;;;29.25;20.25;;;;;26.08;39.16;101104.81;5061378;28;45455;-68
2023/09/08 06:21:56;;;;;;;;;24.00;21.75;;;;;26.08;39.77;101110.19;5062739;28;45424;-68
2023/09/08 06:24:22;;;;;;;;;21.25;19.25;;;;;26.06;39.18;101106.75;5061517;28;45558;-67
2023/09/08 06:26:47;;;;;;;;;19.75;14.25;;;;;26.09;39.62;101102.00;5073585;28;45592;-68
2023/09/08 06:29:12;;;;;;;;;17.25;14.25;;;;;26.08;39.73;101105.66;5063135;28;45401;-68
2023/09/08 06:31:38;;;;;;;;;20.50;16.25;;;;;26.08;39.88;101105.66;5062891;28;45281;-68
2023/09/08 06:34:03;;;;;;;;;16.25;15.25;;;;;26.09;39.88;101106.53;5061290;28;45506;-68
2023/09/08 06:36:28;;;;;;;;;20.00;17.75;;;;;26.08;39.63;101111.03;5062785;28;46168;-68
2023/09/08 06:38:54;;;;;;;;;16.00;15.25;;;;;26.09;39.94;101112.75;5062930;28;45277;-68
2023/09/08 06:41:19;;;;;;;;;17.75;16.75;;;;;26.11;40.04;101115.34;5062828;28;45240;-68
2023/09/08 06:43:44;;;;;;;;;21.00;19.00;;;;;26.11;40.07;101112.63;5062869;28;45196;-68
2023/09/08 06:46:10;;;;;;;;;20.75;17.75;;;;;26.12;39.39;101114.38;5061335;28;47274;-68
2023/09/08 06:48:35;;;;;;;;;19.75;16.75;;;;;26.12;39.66;101106.28;5062853;28;45316;-68
2023/09/08 06:51:01;;;;;;;;;19.50;17.75;;;;;26.14;40.01;101114.25;5077800;28;45503;-68
2023/09/08 06:53:26;;;;;;;;;25.75;18.75;;;;;26.14;40.12;101122.31;5062497;28;45541;-68
2023/09/08 06:55:51;;;;;;;;;18.25;17.00;;;;;26.15;39.94;101111.47;5062401;28;45293;-68
2023/09/08 06:58:17;;;;;;;;;21.00;19.00;;;;;26.11;39.92;101110.81;5062593;28;45205;-68
2023/09/08 07:00:43;;;;;;;;;20.25;17.00;;;;;26.18;39.97;101122.00;5062758;28;45176;-68
2023/09/08 07:03:08;;;;;;;;;17.75;15.75;;;;;26.17;39.71;101112.19;5062649;28;45306;-68
2023/09/08 07:05:34;;;;;;;;;17.75;15.50;;;;;26.21;39.70;101120.91;5058224;28;47924;-68
2023/09/08 07:07:59;;;;;;;;;22.25;18.75;;;;;26.20;39.75;101108.41;5042485;28;45411;-68
2023/09/08 07:10:25;;;;;;;;;25.50;19.50;;;;;26.19;39.69;101112.94;5060643;28;45276;-68
2023/09/08 07:12:50;;;;;;;;;19.00;19.00;;;;;26.26;40.25;101116.03;5062506;28;45401;-68
2023/09/08 07:15:16;;;;;;;;;20.25;15.50;;;;;26.26;39.93;101118.72;5061739;28;45420;-68
2023/09/08 07:17:41;;;;;;;;;21.75;20.25;;;;;26.30;40.17;101116.66;5061483;28;45326;-68
2023/09/08 07:20:08;;;;;;;;;19.00;17.75;;;;;26.33;40.31;101119.13;5062329;28;45397;-68
2023/09/08 07:22:33;;;;;;;;;21.25;15.50;;;;;26.35;39.58;101123.44;5062249;28;45359;-68
2023/09/08 07:24:58;;;;;;;;;23.00;18.00;;;;;26.38;40.22;101115.09;5061758;28;45380;-68
2023/09/08 07:27:24;;;;;;;;;21.00;17.75;;;;;26.40;39.96;101123.94;5072984;27;45397;-68
2023/09/08 07:29:49;;;;;;;;;18.25;17.00;;;;;26.42;40.06;101119.28;5062268;28;45272;-68
2023/09/08 07:32:15;;;;;;;;;19.75;14.25;;;;;26.46;39.96;101122.59;5062216;28;45205;-68
2023/09/08 07:34:40;;;;;;;;;16.50;16.00;;;;;26.51;40.02;101133.03;5061847;28;45482;-68
2023/09/08 07:37:06;;;;;;;;;16.75;15.25;;;;;26.50;39.69;101126.78;5061921;28;45223;-68
2023/09/08 07:39:32;;;;;;;;;22.75;17.00;;;;;26.55;39.72;101135.41;5060505;28;45392;-68
2023/09/08 07:41:58;;;;;;;;;20.75;16.50;;;;;26.58;39.62;101137.84;5061884;28;45160;-68
2023/09/08 07:44:23;;;;;;;;;17.25;17.00;;;;;26.61;40.12;101128.66;5059875;28;46779;-68
2023/09/08 07:46:51;;;;;;;;;17.50;14.75;;;;;26.66;40.36;101126.47;5061745;28;45234;-68
2023/09/08 07:49:20;;;;;;;;;15.50;14.50;;;;;26.66;39.98;101128.31;5061975;28;45336;-69
2023/09/08 07:51:45;;;;;;;;;12.50;12.00;;;;;26.73;39.45;101132.28;5061762;28;45482;-68
2023/09/08 07:54:11;;;;;;;;;12.75;12.75;;;;;26.75;39.57;101128.53;5061165;28;46140;-68
2023/09/08 07:56:36;;;;;;;;;10.50;10.00;;;;;26.78;40.23;101130.13;5061706;28;45328;-68
2023/09/08 07:59:05;;;;;;;;;12.00;11.75;;;;;26.82;40.03;101126.19;5061973;28;45458;-68
2023/09/08 08:01:30;;;;;;;;;11.50;10.25;;;;;26.86;39.70;101124.97;5060271;28;45407;-68
2023/09/08 08:03:56;;;;;;;;;12.00;11.25;;;;;26.89;39.48;101131.97;5058130;28;48230;-67
2023/09/08 08:06:40;;;;;;;;;10.50;10.25;;;;;26.87;39.64;101112.38;5566140;22;47211;-67
2023/09/08 08:09:05;;;;;;;;;12.75;12.50;;;;;27.00;40.09;101128.44;5081111;27;45344;-68
2023/09/08 08:11:31;;;;;;;;;11.75;11.75;;;;;27.02;39.52;101131.88;5081718;27;45266;-68
2023/09/08 08:13:56;;;;;;;;;14.25;11.25;;;;;27.07;39.65;101125.16;5081706;27;45446;-67
2023/09/08 08:16:22;;;;;;;;;15.25;15.00;;;;;27.12;40.31;101127.50;5094937;27;45265;-67
2023/09/08 08:18:48;;;;;;;;;18.75;15.25;;;;;27.18;39.82;101128.84;5100830;27;45334;-67
2023/09/08 08:21:13;;;;;;;;;14.75;13.25;;;;;27.22;40.17;101130.31;5102239;27;45226;-67
2023/09/08 08:23:39;;;;;;;;;15.75;13.75;;;;;27.29;39.80;101130.69;5101638;27;45397;-67
2023/09/08 08:26:04;;;;;;;;;14.25;14.00;;;;;27.34;39.86;101136.59;5102038;27;45256;-67
2023/09/08 08:28:29;;;;;;;;;11.00;10.25;;;;;27.37;39.65;101130.94;5101504;27;45231;-67
2023/09/08 08:30:55;;;;;;;;;12.75;12.00;;;;;27.44;39.94;101140.31;5101755;27;45168;-67
2023/09/08 08:33:22;;;;;;;;;13.50;11.00;;;;;27.49;40.15;101138.09;5100319;27;45228;-67
2023/09/08 08:35:51;;;;;;;;;12.50;11.75;;;;;27.54;39.68;101146.66;5100338;27;45315;-66
2023/09/08 08:38:17;;;;;;;;;14.00;12.00;;;;;27.61;40.09;101140.78;5101544;27;45230;-67
2023/09/08 08:41:02;;;;;;;;;12.25;11.50;;;;;27.70;39.69;101140.06;5101637;27;45416;-67
2023/09/08 08:43:28;;;;;;;;;13.50;12.25;;;;;27.76;40.25;101142.28;5100380;27;47084;-67
2023/09/08 08:45:55;;;;;;;;;12.00;12.00;;;;;27.82;39.66;101147.13;5101544;27;45223;-66
2023/09/08 08:48:24;;;;;;;;;15.25;12.00;;;;;27.88;39.79;101143.94;5101815;27;45169;-67
2023/09/08 08:50:50;;;;;;;;;14.00;12.50;;;;;27.96;40.13;101139.78;5099667;27;45612;-67
2023/09/08 08:53:17;;;;;;;;;12.50;12.50;;;;;28.04;39.90;101142.75;5101404;27;46377;-66
2023/09/08 08:55:43;;;;;;;;;12.75;12.75;;;;;28.12;39.53;101152.91;5086511;27;45313;-66
2023/09/08 08:58:09;;;;;;;;;19.75;14.00;;;;;28.18;40.12;101147.84;5080033;27;45290;-66
2023/09/08 09:00:36;;;;;;;;;10.75;7.75;;;;;28.26;40.04;101152.63;5080790;27;45222;-67
2023/09/08 09:03:04;;;;;;;;;16.00;14.00;;;;;28.34;40.28;101151.97;5081076;27;46063;-66
2023/09/08 09:05:30;;;;;;;;;14.50;13.00;;;;;28.43;39.90;101145.81;5080778;28;46586;-66
2023/09/08 09:07:58;;;;;;;;;13.50;12.25;;;;;28.48;39.93;101149.00;5080863;28;45398;-66
2023/09/08 09:10:23;;;;;;;;;13.75;12.75;;;;;28.60;39.92;101159.75;5085569;27;45933;-66
2023/09/08 09:12:49;;;;;;;;;14.50;14.00;;;;;28.67;39.48;101159.13;5101426;27;46270;-67
2023/09/08 09:15:16;;;;;;;;;16.25;13.50;;;;;28.76;39.64;101148.53;5099769;27;45242;-67
2023/09/08 09:17:41;;;;;;;;;14.00;12.75;;;;;28.85;39.67;101147.75;5101507;27;45305;-66
2023/09/08 09:20:15;;;;;;;;;18.50;17.75;;;;;28.94;39.84;101141.53;5099612;27;45688;-67
2023/09/08 09:22:40;;;;;;;;;15.75;14.75;;;;;29.06;39.60;101152.31;5101242;27;45499;-66
2023/09/08 09:25:07;;;;;;;;;16.25;16.00;;;;;29.15;39.88;101144.22;5099095;27;45238;-66
2023/09/08 09:27:35;;;;;;;;;14.75;14.75;;;;;29.25;39.91;101146.16;5101343;27;45639;-66
2023/09/08 09:30:00;;;;;;;;;17.00;13.50;;;;;29.38;39.56;101143.25;5100786;27;45524;-66
2023/09/08 09:32:28;;;;;;;;;17.75;14.50;;;;;29.46;39.58;101138.88;5100991;27;45219;-66
2023/09/08 09:34:54;;;;;;;;;13.00;13.00;;;;;29.62;39.73;101142.91;5100801;27;45258;-66
2023/09/08 09:37:20;;;;;;;;;10.25;10.25;;;;;29.76;39.83;101150.69;5101114;27;45435;-66
2023/09/08 09:39:50;;;;;;;;;11.75;11.25;;;;;29.94;39.48;101137.34;5099461;27;45288;-66
2023/09/08 09:42:15;;;;;;;;;12.25;10.00;;;;;30.14;40.05;101140.09;5099227;27;48165;-66
2023/09/08 09:44:41;;;;;;;;;8.75;8.75;;;;;30.36;39.69;101136.25;5100696;27;45366;-65
2023/09/08 09:47:08;;;;;;;;;14.00;11.50;;;;;30.62;39.92;101146.59;5100963;27;45352;-66
2023/09/08 09:49:42;;;;;;;;;10.50;10.50;;;;;30.87;39.17;101145.13;5100543;27;45476;-66
2023/09/08 09:52:07;;;;;;;;;13.00;11.00;;;;;31.15;39.68;101144.41;5099407;27;45681;-66
2023/09/08 09:54:36;;;;;;;;;11.00;11.00;;;;;31.40;39.70;101140.16;5093999;27;55110;-66
2023/09/08 09:57:02;;;;;;;;;9.50;9.50;;;;;31.67;39.02;101139.34;5078846;27;45193;-66
2023/09/08 09:59:49;;;;;;;;;12.75;11.00;;;;;31.91;38.84;101138.81;5084577;27;45292;-66
2023/09/08 10:02:19;;;;;;;;;11.00;10.75;;;;;32.13;39.19;101125.78;5097781;27;45379;-66
2023/09/08 10:04:45;;;;;;;;;12.75;11.75;;;;;32.36;38.67;101138.94;5100524;27;45302;-66
2023/09/08 10:07:15;;;;;;;;;11.00;9.75;;;;;32.57;38.05;101128.59;5100280;27;45227;-66
2023/09/08 10:09:41;;;;;;;;;11.75;9.50;;;;;32.75;37.91;101132.34;5088720;27;45452;-67
2023/09/08 10:12:08;;;;;;;;;13.50;11.25;;;;;32.90;38.21;101139.75;5079235;28;56974;-65
2023/09/08 10:14:41;;;;;;;;;10.25;9.00;;;;;33.05;37.59;101140.03;5080284;28;45330;-66
2023/09/08 10:17:16;;;;;;;;;13.50;10.25;;;;;33.19;37.55;101137.75;5079652;28;45208;-66
2023/09/08 10:19:44;;;;;;;;;10.00;10.00;;;;;33.32;37.92;101134.59;5079938;28;45410;-66
2023/09/08 10:22:15;;;;;;;;;12.25;10.50;;;;;33.47;37.80;101134.84;5079678;28;45344;-65
2023/09/08 10:24:44;;;;;;;;;13.25;12.75;;;;;33.60;37.46;101129.81;5078977;28;45338;-66
2023/09/08 10:27:11;;;;;;;;;13.00;10.75;;;;;33.76;36.90;101126.31;5108188;27;45239;-66
2023/09/08 10:29:40;;;;;;;;;14.00;11.67;;;;;33.92;37.08;101132.84;5086235;27;45219;-66
2023/09/08 10:32:08;;;;;;;;;10.00;10.00;;;;;34.08;36.62;101137.50;5079570;27;45520;-66
2023/09/08 10:34:35;;;;;;;;;12.50;11.75;;;;;34.30;36.94;101136.84;5078222;27;45257;-66
2023/09/08 10:37:04;;;;;;;;;16.50;12.75;;;;;34.49;36.40;101134.81;5135381;22;45529;-66
2023/09/08 10:39:38;;;;;;;;;13.50;11.75;;;;;34.70;36.36;101144.38;5057677;28;45304;-66
2023/09/08 10:42:23;;;;;;;;;12.00;11.00;;;;;34.97;36.06;101135.03;5057813;28;45569;-66
2023/09/08 10:44:51;;;;;;;;;12.00;10.50;;;;;35.21;36.16;101142.28;5057736;28;45283;-66
2023/09/08 10:47:30;;;;;;;;;13.00;12.50;;;;;35.46;35.89;101140.38;5058056;28;45368;-66
2023/09/08 10:50:00;;;;;;;;;13.00;12.50;;;;;35.72;35.73;101132.91;5065645;28;45531;-66
2023/09/08 10:52:29;;;;;;;;;12.50;10.00;;;;;35.98;35.28;101135.38;5079953;28;47374;-65
2023/09/08 10:54:55;;;;;;;;;12.50;12.00;;;;;36.21;35.01;101126.31;5078438;28;45358;-68
2023/09/08 10:57:23;;;;;;;;;11.00;10.50;;;;;36.48;35.62;101130.44;5064655;27;45558;-66
2023/09/08 10:59:56;;;;;;;;;11.75;11.00;;;;;36.74;34.88;101127.28;5062618;28;45467;-66
2023/09/08 11:02:40;;;;;;;;;9.50;9.50;;;;;37.07;34.91;101123.38;5061074;28;45300;-67
2023/09/08 11:05:10;;;;;;;;;12.25;11.00;;;;;37.36;34.28;101127.19;5067673;22;45751;-66
2023/09/08 11:07:42;;;;;;;;;11.25;10.25;;;;;37.68;34.24;101123.19;5041250;28;45205;-67